Time;durP1;ratioP1;P1;durP2;ratioP2;P2;SDS_P1;SDS_P2;PMS_P1;PMS_P2;Temp;Humidity;BMP_temperature;BMP_pressure;BME280_temperature;BME280_humidity;BME280_pressure;Samples;Min_cycle;Max_cycle;Signal;HPM_P1;HPM_P2
2021/12/13 00:00:26;;;;;;;77.32;28.15;;;1.60;99.90;;;;;;5097655;28;20043;-50
2021/12/13 00:03:08;;;;;;;57.67;24.02;;;1.60;99.90;;;;;;5097583;28;20465;-50
2021/12/13 00:05:48;;;;;;;55.28;20.52;;;1.70;99.90;;;;;;5097536;28;20477;-50
2021/12/13 00:08:19;;;;;;;84.35;29.50;;;1.60;99.90;;;;;;5097553;28;20427;-50
2021/12/13 00:10:50;;;;;;;;;;;1.60;99.90;;;;;;5097815;28;20096;-50
2021/12/13 00:13:19;;;;;;;;;;;1.60;99.90;;;;;;5098039;28;19907;-50
2021/12/13 00:16:07;;;;;;;90.63;32.88;;;1.70;99.90;;;;;;5097344;28;19912;-50
2021/12/13 00:18:40;;;;;;;99.00;34.30;;;1.70;99.90;;;;;;5097299;28;20027;-50
2021/12/13 00:21:21;;;;;;;110.13;37.58;;;1.70;99.90;;;;;;5097192;28;20027;-50
2021/12/13 00:23:50;;;;;;;;;;;1.70;99.90;;;;;;5097644;28;20055;-50
2021/12/13 00:26:28;;;;;;;89.95;35.08;;;1.70;99.90;;;;;;5097267;28;20340;-50
2021/12/13 00:28:56;;;;;;;54.60;19.95;;;1.70;99.90;;;;;;5097236;28;20047;-50
2021/12/13 00:31:33;;;;;;;108.32;39.50;;;1.70;99.90;;;;;;5097002;28;20035;-50
2021/12/13 00:34:20;;;;;;;164.50;59.30;;;1.70;99.90;;;;;;5097056;28;20052;-50
2021/12/13 00:37:06;;;;;;;48.92;22.10;;;1.60;99.90;;;;;;5096989;28;20020;-50
2021/12/13 00:39:41;;;;;;;80.13;33.35;;;1.70;99.90;;;;;;5096599;28;20040;-50
2021/12/13 00:42:08;;;;;;;37.40;18.83;;;1.70;99.90;;;;;;5096769;28;20424;-50
2021/12/13 00:44:41;;;;;;;99.75;42.28;;;1.60;99.90;;;;;;5096790;28;20020;-50
2021/12/13 00:47:30;;;;;;;54.17;22.88;;;1.70;99.90;;;;;;5096694;28;20456;-50
2021/12/13 00:50:07;;;;;;;36.75;19.10;;;1.60;99.90;;;;;;5096640;28;20409;-50
2021/12/13 00:52:35;;;;;;;41.20;20.67;;;1.60;99.90;;;;;;5096557;28;20512;-50
2021/12/13 00:55:17;;;;;;;46.78;22.90;;;1.60;99.90;;;;;;5096660;28;20032;-51
2021/12/13 00:57:51;;;;;;;37.60;18.45;;;1.60;99.90;;;;;;5096473;28;20058;-50
2021/12/13 01:00:20;;;;;;;43.80;22.80;;;1.70;99.90;;;;;;5096567;28;20574;-50
2021/12/13 01:02:52;;;;;;;37.33;20.05;;;1.70;99.90;;;;;;5096365;28;20111;-50
2021/12/13 01:05:39;;;;;;;36.03;19.05;;;1.70;99.90;;;;;;5096642;28;20028;-50
2021/12/13 01:08:11;;;;;;;33.28;16.92;;;1.70;99.90;;;;;;5096484;28;20080;-50
2021/12/13 01:11:15;;;;;;;35.25;18.13;;;1.70;99.90;;;;;;5096371;28;20028;-50
2021/12/13 01:14:37;;;;;;;32.60;18.75;;;1.70;99.90;;;;;;5096318;28;20039;-50
2021/12/13 01:17:25;;;;;;;32.97;17.45;;;1.70;99.90;;;;;;5096012;28;20496;-51
2021/12/13 01:20:04;;;;;;;33.42;17.50;;;1.70;99.90;;;;;;5096207;28;20028;-51
2021/12/13 01:25:19;;;;;;;26.95;14.15;;;1.70;99.90;;;;;;5096105;28;20497;-50
2021/12/13 01:27:58;;;;;;;29.67;15.95;;;1.60;99.90;;;;;;5095871;28;20445;-50
2021/12/13 01:30:37;;;;;;;25.05;15.02;;;1.70;99.90;;;;;;5096156;28;20031;-50
2021/12/13 01:33:07;;;;;;;32.00;16.25;;;1.70;99.90;;;;;;5095843;28;20381;-50
2021/12/13 01:35:39;;;;;;;31.50;16.45;;;1.60;99.90;;;;;;5095916;28;20043;-50
2021/12/13 01:38:13;;;;;;;32.90;15.35;;;1.60;99.90;;;;;;5095807;28;20024;-50
2021/12/13 01:40:43;;;;;;;26.55;14.15;;;1.60;99.90;;;;;;5095775;28;20105;-50
2021/12/13 01:43:22;;;;;;;32.80;16.27;;;1.60;99.90;;;;;;5095518;28;20238;-50
2021/12/13 01:45:53;;;;;;;30.15;15.40;;;1.60;99.90;;;;;;5095586;28;20389;-50
2021/12/13 01:48:30;;;;;;;28.85;15.98;;;1.60;99.90;;;;;;5095156;28;20419;-50
2021/12/13 01:51:05;;;;;;;28.92;15.23;;;1.50;99.90;;;;;;5095526;28;20046;-50
2021/12/13 01:53:58;;;;;;;24.02;13.20;;;1.50;99.90;;;;;;5095569;28;20439;-50
2021/12/13 01:56:52;;;;;;;23.77;12.95;;;1.60;99.90;;;;;;5095458;28;20028;-50
2021/12/13 02:02:16;;;;;;;23.92;12.80;;;1.50;99.90;;;;;;5095258;28;20028;-50
2021/12/13 02:04:44;;;;;;;27.20;13.40;;;1.60;99.90;;;;;;5095266;28;20377;-50
2021/12/13 02:07:11;;;;;;;25.30;13.82;;;1.60;99.90;;;;;;5095212;28;20016;-50
2021/12/13 02:09:41;;;;;;;25.05;14.20;;;1.60;99.90;;;;;;5095273;28;20069;-50
2021/12/13 02:12:13;;;;;;;23.90;12.73;;;1.60;99.90;;;;;;5095313;28;20484;-50
2021/12/13 02:16:55;;;;;;;23.00;11.95;;;1.60;99.90;;;;;;5095198;28;20044;-50
2021/12/13 02:17:37;;;;;;;18.88;12.10;;;1.70;99.90;;;;;;5094935;28;20034;-50
2021/12/13 02:20:41;;;;;;;20.27;11.95;;;1.60;99.90;;;;;;5095216;28;20085;-50
2021/12/13 02:23:08;;;;;;;21.77;12.15;;;1.60;99.90;;;;;;5092742;28;20044;-50
2021/12/13 02:25:46;;;;;;;19.98;12.30;;;1.60;99.90;;;;;;5095088;28;20031;-50
2021/12/13 02:28:19;;;;;;;21.88;12.80;;;1.70;99.90;;;;;;5094848;28;20024;-50
2021/12/13 02:30:55;;;;;;;21.75;12.52;;;1.70;99.90;;;;;;5095054;28;20032;-50
2021/12/13 02:33:35;;;;;;;18.80;11.77;;;1.60;99.90;;;;;;5094920;28;20072;-50
2021/12/13 02:36:08;;;;;;;22.10;12.75;;;1.60;99.90;;;;;;5094944;28;20035;-50
2021/12/13 02:38:36;;;;;;;26.08;13.20;;;1.60;99.90;;;;;;5094845;28;20028;-50
2021/12/13 02:41:04;;;;;;;23.55;13.48;;;1.60;99.90;;;;;;5094897;28;20024;-50
2021/12/13 02:43:35;;;;;;;27.83;12.52;;;1.60;99.90;;;;;;5094582;28;20465;-50
2021/12/13 02:46:01;;;;;;;21.25;12.18;;;1.60;99.90;;;;;;5094780;28;20465;-50
2021/12/13 02:48:54;;;;;;;19.67;12.52;;;1.60;99.90;;;;;;5094729;28;20415;-50
2021/12/13 02:51:30;;;;;;;20.90;11.68;;;1.60;99.90;;;;;;5094626;28;20032;-50
2021/12/13 02:54:08;;;;;;;19.50;11.77;;;1.60;99.90;;;;;;5094845;28;20369;-50
2021/12/13 02:56:42;;;;;;;20.88;12.40;;;1.60;99.90;;;;;;5094584;28;20028;-50
2021/12/13 02:59:10;;;;;;;21.73;13.18;;;1.60;99.90;;;;;;5097740;28;20095;-50
2021/12/13 03:01:41;;;;;;;21.42;12.77;;;1.60;99.90;;;;;;5098602;28;20028;-50
2021/12/13 03:04:12;;;;;;;20.88;12.55;;;1.60;99.90;;;;;;5098722;28;20533;-50
2021/12/13 03:06:56;;;;;;;21.58;12.77;;;1.60;99.90;;;;;;5098768;28;20032;-50
2021/12/13 03:09:24;;;;;;;25.80;12.75;;;1.60;99.90;;;;;;5098665;28;20024;-50
2021/12/13 03:11:53;;;;;;;23.63;13.57;;;1.50;99.90;;;;;;5098657;28;20042;-50
2021/12/13 03:14:30;;;;;;;24.70;14.10;;;1.60;99.90;;;;;;5098609;28;20338;-50
2021/12/13 03:17:20;;;;;;;31.38;14.75;;;1.60;99.90;;;;;;5098599;28;20032;-50
2021/12/13 03:20:17;;;;;;;32.17;15.32;;;1.60;99.90;;;;;;5098556;28;20099;-50
2021/12/13 03:23:16;;;;;;;30.83;15.90;;;1.60;99.90;;;;;;5098258;28;20035;-50
2021/12/13 03:26:06;;;;;;;35.10;16.60;;;1.60;99.90;;;;;;5097074;28;20040;-50
2021/12/13 03:29:10;;;;;;;28.63;15.35;;;1.60;99.90;;;;;;5098239;28;20024;-50
2021/12/13 03:31:49;;;;;;;29.65;15.77;;;1.60;99.90;;;;;;5098210;28;20107;-50
2021/12/13 03:34:22;;;;;;;27.52;15.43;;;1.60;99.90;;;;;;5098280;28;20027;-50
2021/12/13 03:37:08;;;;;;;31.73;15.45;;;1.50;99.90;;;;;;5098072;28;20107;-50
2021/12/13 03:39:44;;;;;;;37.53;15.88;;;1.60;99.90;;;;;;5098162;28;20439;-50
2021/12/13 03:42:21;;;;;;;26.05;15.38;;;1.60;99.90;;;;;;5097758;28;20044;-50
2021/12/13 03:44:50;;;;;;;31.50;15.27;;;1.60;99.90;;;;;;5097989;28;20027;-50
2021/12/13 03:47:26;;;;;;;30.23;15.68;;;1.60;99.90;;;;;;5098083;28;20024;-50
2021/12/13 03:50:00;;;;;;;31.77;16.33;;;1.60;99.90;;;;;;5097846;28;20073;-50
2021/12/13 03:52:29;;;;;;;36.00;16.63;;;1.70;99.90;;;;;;5097788;28;20052;-50
2021/12/13 03:54:59;;;;;;;30.38;16.88;;;1.70;99.90;;;;;;5097645;28;20032;-50
2021/12/13 03:57:26;;;;;;;29.48;16.00;;;1.70;99.90;;;;;;5097768;28;20020;-50
2021/12/13 03:59:52;;;;;;;29.00;15.32;;;1.70;99.90;;;;;;5097608;28;20424;-50
2021/12/13 04:02:28;;;;;;;31.48;16.15;;;1.70;99.90;;;;;;5097741;28;20115;-50
2021/12/13 04:04:58;;;;;;;24.33;15.15;;;1.60;99.90;;;;;;5097762;28;20028;-50
2021/12/13 04:07:36;;;;;;;29.05;16.27;;;1.70;99.90;;;;;;5097627;28;20103;-50
2021/12/13 04:10:10;;;;;;;36.85;17.80;;;1.70;99.90;;;;;;5096797;28;20449;-51
2021/12/13 04:12:44;;;;;;;28.33;16.23;;;1.70;99.90;;;;;;5097832;28;20035;-50
2021/12/13 04:15:16;;;;;;;35.30;17.45;;;1.70;99.90;;;;;;5097463;28;20126;-50
2021/12/13 04:17:58;;;;;;;27.13;16.15;;;1.70;99.90;;;;;;5097281;28;20034;-50
2021/12/13 04:20:31;;;;;;;29.67;17.73;;;1.60;99.90;;;;;;5097231;28;20032;-50
2021/12/13 04:23:08;;;;;;;34.85;18.98;;;1.70;99.90;;;;;;5097139;28;20103;-50
2021/12/13 04:25:38;;;;;;;43.33;22.02;;;1.70;99.90;;;;;;5097193;28;20433;-50
2021/12/13 04:28:10;;;;;;;43.75;24.08;;;1.70;99.90;;;;;;5097280;28;20032;-50
2021/12/13 04:30:54;;;;;;;49.58;26.17;;;1.70;99.90;;;;;;5097196;28;20050;-50
2021/12/13 04:33:42;;;;;;;71.35;35.97;;;1.70;99.90;;;;;;5097202;28;20028;-50
2021/12/13 04:36:27;;;;;;;97.88;43.83;;;1.70;99.90;;;;;;5097002;28;20035;-50
2021/12/13 04:39:17;;;;;;;108.75;47.10;;;1.70;99.90;;;;;;5097074;28;20522;-50
2021/12/13 04:41:45;;;;;;;123.87;50.90;;;1.80;99.90;;;;;;5096639;28;20484;-50
2021/12/13 04:44:33;;;;;;;126.60;51.97;;;1.70;99.90;;;;;;5096819;28;20032;-50
2021/12/13 04:47:10;;;;;;;150.38;57.13;;;1.70;99.90;;;;;;5096662;28;20478;-50
2021/12/13 04:49:40;;;;;;;153.60;57.40;;;1.70;99.90;;;;;;5096775;28;20032;-50
2021/12/13 04:52:13;;;;;;;151.20;55.25;;;1.80;99.90;;;;;;5096518;28;20040;-50
2021/12/13 04:54:43;;;;;;;142.88;52.33;;;1.80;99.90;;;;;;5096597;28;20044;-50
2021/12/13 04:57:09;;;;;;;146.32;53.60;;;1.70;99.90;;;;;;5096507;28;20043;-50
2021/12/13 04:59:36;;;;;;;117.13;45.50;;;1.70;99.90;;;;;;5096627;28;20031;-50
2021/12/13 05:02:07;;;;;;;106.80;43.75;;;1.80;99.90;;;;;;5096370;28;20382;-50
2021/12/13 05:04:34;;;;;;;97.72;39.33;;;1.80;99.90;;;;;;5096505;28;20477;-50
2021/12/13 05:07:04;;;;;;;94.80;40.78;;;1.80;99.90;;;;;;5096454;28;20039;-50
2021/12/13 05:09:31;;;;;;;101.65;39.30;;;1.80;99.90;;;;;;5096264;28;20025;-50
2021/12/13 05:12:09;;;;;;;87.72;36.15;;;1.80;99.90;;;;;;5096355;28;20034;-50
2021/12/13 05:14:43;;;;;;;79.75;35.78;;;1.70;99.90;;;;;;5096283;28;20488;-50
2021/12/13 05:17:23;;;;;;;75.15;33.15;;;1.70;99.90;;;;;;5096198;28;20040;-50
2021/12/13 05:20:14;;;;;;;54.95;24.77;;;1.70;99.90;;;;;;5096186;28;20077;-50
2021/12/13 05:22:58;;;;;;;67.68;30.10;;;1.70;99.90;;;;;;5094574;28;20122;-50
2021/12/13 05:25:45;;;;;;;62.38;29.63;;;1.70;99.90;;;;;;5095937;28;20028;-50
2021/12/13 05:28:14;;;;;;;66.53;31.40;;;1.70;99.90;;;;;;5095926;28;20043;-50
2021/12/13 05:31:04;;;;;;;64.30;30.88;;;1.80;99.90;;;;;;5095861;28;20027;-50
2021/12/13 05:33:34;;;;;;;62.93;32.23;;;1.80;99.90;;;;;;5095809;28;20039;-50
2021/12/13 05:36:09;;;;;;;71.05;33.05;;;1.80;99.90;;;;;;5096014;28;20111;-50
2021/12/13 05:38:38;;;;;;;70.65;32.53;;;1.80;99.90;;;;;;5095672;28;20079;-50
2021/12/13 05:41:06;;;;;;;73.72;33.65;;;1.70;99.90;;;;;;5094276;28;20028;-50
2021/12/13 05:43:38;;;;;;;85.32;34.85;;;1.70;99.90;;;;;;5095362;28;20086;-50
2021/12/13 05:46:12;;;;;;;87.25;36.25;;;1.80;99.90;;;;;;5095495;28;20412;-50
2021/12/13 05:48:46;;;;;;;80.10;36.67;;;1.70;99.90;;;;;;5095611;28;20027;-50
2021/12/13 05:51:39;;;;;;;85.22;36.45;;;1.70;99.90;;;;;;5095555;28;20458;-50
2021/12/13 05:54:08;;;;;;;100.93;44.30;;;1.70;99.90;;;;;;5095359;28;20532;-50
2021/12/13 05:56:41;;;;;;;76.30;35.97;;;1.70;99.90;;;;;;5095264;28;20058;-50
2021/12/13 05:59:28;;;;;;;90.65;41.83;;;1.70;99.90;;;;;;5095412;28;20047;-50
2021/12/13 06:02:01;;;;;;;91.30;40.55;;;1.70;99.90;;;;;;5095249;28;20499;-50
2021/12/13 06:04:39;;;;;;;90.82;42.55;;;1.70;99.90;;;;;;5095436;28;20020;-50
2021/12/13 06:07:26;;;;;;;101.03;43.65;;;1.80;99.90;;;;;;5095151;28;20028;-50
2021/12/13 06:10:00;;;;;;;111.15;48.75;;;1.80;99.90;;;;;;5095395;28;20028;-50
2021/12/13 06:12:32;;;;;;;109.43;47.58;;;1.80;99.90;;;;;;5095066;28;20512;-50
2021/12/13 06:15:21;;;;;;;123.05;50.20;;;1.80;99.90;;;;;;5095041;28;20047;-50
2021/12/13 06:18:07;;;;;;;129.75;51.60;;;1.80;99.90;;;;;;5089212;28;20079;-50
2021/12/13 06:20:55;;;;;;;120.90;49.22;;;1.80;99.90;;;;;;5094944;28;20032;-50
2021/12/13 06:23:27;;;;;;;112.50;45.75;;;1.80;99.90;;;;;;5110144;27;20056;-50
2021/12/13 06:25:55;;;;;;;121.57;52.42;;;1.70;99.90;;;;;;5106405;28;20125;-50
2021/12/13 06:28:26;;;;;;;144.32;61.95;;;1.70;99.90;;;;;;5107060;28;20025;-50
2021/12/13 06:31:07;;;;;;;180.38;78.00;;;1.70;99.90;;;;;;5109528;28;20106;-50
2021/12/13 06:33:52;;;;;;;170.18;76.28;;;1.60;99.90;;;;;;5094207;28;20115;-50
2021/12/13 06:36:35;;;;;;;150.52;62.20;;;1.70;99.90;;;;;;5108808;28;20392;-50
2021/12/13 06:39:08;;;;;;;132.07;57.45;;;1.70;99.90;;;;;;5113855;28;20023;-50
2021/12/13 06:41:39;;;;;;;100.60;43.25;;;1.80;99.90;;;;;;5102872;28;20023;-50
2021/12/13 06:44:15;;;;;;;117.32;45.30;;;1.80;99.90;;;;;;5111382;28;20024;-50
2021/12/13 06:46:50;;;;;;;99.00;38.88;;;1.90;99.90;;;;;;5114889;28;20024;-50
2021/12/13 06:49:33;;;;;;;107.13;39.40;;;1.80;99.90;;;;;;5115272;28;20517;-50
2021/12/13 06:52:04;;;;;;;92.95;36.75;;;1.80;99.90;;;;;;5112072;28;20111;-50
2021/12/13 06:54:46;;;;;;;98.53;36.95;;;1.90;99.90;;;;;;5114999;28;20556;-50
2021/12/13 06:57:21;;;;;;;100.22;38.42;;;1.90;99.90;;;;;;5106143;28;20039;-50
2021/12/13 07:00:26;;;;;;;123.43;50.55;;;1.80;99.90;;;;;;5113942;28;20047;-50
2021/12/13 07:03:02;;;;;;;125.45;50.00;;;1.80;99.90;;;;;;5110791;28;20027;-50
2021/12/13 07:05:34;;;;;;;123.38;53.75;;;1.80;99.90;;;;;;5103356;28;20023;-50
2021/12/13 07:08:08;;;;;;;106.15;44.25;;;1.90;99.90;;;;;;5105397;28;20086;-50
2021/12/13 07:10:42;;;;;;;84.40;35.20;;;1.90;99.90;;;;;;5113096;28;20077;-50
2021/12/13 07:13:43;;;;;;;111.22;40.95;;;1.90;99.90;;;;;;5110987;28;20090;-50
2021/12/13 07:16:12;;;;;;;94.97;39.65;;;1.90;99.90;;;;;;5115238;28;20376;-50
2021/12/13 07:18:50;;;;;;;133.35;56.22;;;1.90;99.90;;;;;;5113229;28;20070;-50
2021/12/13 07:21:18;;;;;;;138.85;58.97;;;1.80;99.90;;;;;;5113289;28;20031;-50
2021/12/13 07:23:57;;;;;;;120.55;50.97;;;2.00;99.90;;;;;;5099755;28;20024;-50
2021/12/13 07:26:32;;;;;;;156.90;65.88;;;2.00;99.90;;;;;;5114890;28;20055;-50
2021/12/13 07:28:59;;;;;;;116.72;54.53;;;2.00;99.90;;;;;;5114887;28;20538;-50
2021/12/13 07:31:25;;;;;;;118.18;49.67;;;2.00;99.90;;;;;;5112762;28;20018;-50
2021/12/13 07:33:51;;;;;;;609.90;88.18;;;1.90;99.90;;;;;;5114357;28;20102;-50
2021/12/13 07:36:25;;;;;;;164.65;56.65;;;2.00;99.90;;;;;;5098363;28;20784;-50
2021/12/13 07:38:58;;;;;;;149.90;53.03;;;2.00;99.90;;;;;;5099235;28;20093;-50
2021/12/13 07:41:27;;;;;;;121.70;48.50;;;2.10;99.90;;;;;;5099849;28;20429;-50
2021/12/13 07:43:53;;;;;;;116.95;48.75;;;2.30;99.90;;;;;;5108932;28;20542;-50
2021/12/13 07:46:21;;;;;;;114.90;45.83;;;2.20;99.90;;;;;;5108029;28;20015;-50
2021/12/13 07:48:49;;;;;;;103.57;44.72;;;2.20;99.90;;;;;;5107072;28;20052;-50
2021/12/13 07:51:40;;;;;;;102.63;44.50;;;2.20;99.90;;;;;;5110695;27;20019;-50
2021/12/13 07:54:13;;;;;;;96.32;42.75;;;2.20;99.90;;;;;;5102039;28;20043;-50
2021/12/13 07:56:57;;;;;;;92.75;40.45;;;2.20;99.90;;;;;;5111947;27;20034;-50
2021/12/13 07:59:24;;;;;;;95.25;38.72;;;2.20;99.90;;;;;;5112058;28;20058;-50
2021/12/13 08:02:05;;;;;;;101.63;43.33;;;2.20;99.90;;;;;;5117727;28;20032;-50
2021/12/13 08:04:36;;;;;;;96.47;43.20;;;2.30;99.90;;;;;;5117051;28;20039;-51
2021/12/13 08:07:13;;;;;;;107.10;43.53;;;2.40;99.90;;;;;;5117737;28;20035;-51
2021/12/13 08:09:45;;;;;;;95.82;42.67;;;2.50;99.90;;;;;;5117692;28;20023;-50
2021/12/13 08:12:31;;;;;;;95.13;42.05;;;2.50;99.90;;;;;;5107278;28;20024;-50
2021/12/13 08:15:12;;;;;;;102.82;44.50;;;2.30;99.90;;;;;;5109733;28;20091;-50
2021/12/13 08:17:54;;;;;;;92.18;42.20;;;2.50;99.90;;;;;;5112735;28;20157;-51
2021/12/13 08:20:32;;;;;;;126.45;43.30;;;2.60;99.90;;;;;;5110917;28;20028;-51
2021/12/13 08:23:01;;;;;;;112.65;47.90;;;2.80;99.90;;;;;;5112107;27;20035;-51
2021/12/13 08:25:32;;;;;;;109.57;46.45;;;3.00;99.90;;;;;;5098365;28;20036;-51
2021/12/13 08:28:04;;;;;;;104.65;44.65;;;3.10;99.90;;;;;;5111622;28;20032;-50
2021/12/13 08:30:32;;;;;;;111.32;45.30;;;3.10;99.90;;;;;;5115344;28;20012;-50
2021/12/13 08:33:16;;;;;;;116.13;45.25;;;3.10;99.90;;;;;;5109903;28;20056;-50
2021/12/13 08:35:45;;;;;;;95.20;43.20;;;3.10;99.90;;;;;;5113163;28;20392;-50
2021/12/13 08:38:43;;;;;;;109.32;45.53;;;3.00;99.90;;;;;;5114429;28;20035;-51
2021/12/13 08:41:15;;;;;;;107.20;46.40;;;3.20;99.90;;;;;;5111011;28;20073;-51
2021/12/13 08:43:46;;;;;;;114.03;47.95;;;3.30;99.90;;;;;;5108486;28;20034;-50
2021/12/13 08:46:24;;;;;;;100.22;44.65;;;3.60;99.90;;;;;;5110642;27;20035;-51
2021/12/13 08:56:06;;;;;;;95.53;44.38;;;3.70;99.90;;;;;;5094288;28;20028;-51
2021/12/13 08:58:33;;;;;;;89.63;42.17;;;4.50;99.90;;;;;;5096418;28;20060;-51
2021/12/13 09:01:03;;;;;;;90.80;41.65;;;4.70;99.90;;;;;;5095456;28;20104;-51
2021/12/13 09:03:36;;;;;;;96.20;42.75;;;4.80;99.90;;;;;;5095740;28;20445;-51
2021/12/13 09:06:14;;;;;;;121.90;55.72;;;4.60;99.90;;;;;;5096677;28;20111;-51
2021/12/13 09:08:40;;;;;;;117.00;49.85;;;4.70;99.90;;;;;;5095362;28;20024;-51
2021/12/13 09:11:36;;;;;;;115.32;48.75;;;4.90;99.90;;;;;;5093285;28;20024;-52
2021/12/13 09:14:08;;;;;;;142.95;63.75;;;5.00;99.90;;;;;;5094345;28;20016;-50
2021/12/13 09:17:07;;;;;;;161.00;77.40;;;5.00;99.90;;;;;;5092990;28;20035;-50
2021/12/13 09:19:48;;;;;;;205.35;101.68;;;5.00;99.90;;;;;;5093317;28;20028;-51
2021/12/13 09:22:19;;;;;;;219.40;103.63;;;5.10;99.90;;;;;;5095093;28;20028;-50
2021/12/13 09:25:25;;;;;;;177.60;89.43;;;4.90;99.90;;;;;;5093328;28;20084;-50
2021/12/13 09:28:15;;;;;;;125.18;60.80;;;4.80;99.90;;;;;;5094966;28;20077;-50
2021/12/13 09:30:57;;;;;;;111.07;52.77;;;5.00;99.90;;;;;;5093087;28;20020;-50
2021/12/13 09:33:38;;;;;;;116.00;55.50;;;4.70;99.90;;;;;;5092475;28;20048;-50
2021/12/13 09:36:13;;;;;;;114.68;57.03;;;4.80;99.90;;;;;;5092727;28;20028;-54
2021/12/13 09:39:05;;;;;;;111.38;54.08;;;4.90;99.90;;;;;;5095160;28;20133;-50
2021/12/13 09:41:41;;;;;;;101.45;53.63;;;4.90;99.90;;;;;;5093113;28;20052;-50
2021/12/13 09:44:11;;;;;;;113.35;60.67;;;4.60;99.90;;;;;;5092192;28;20031;-50
2021/12/13 09:46:40;;;;;;;110.88;61.33;;;4.90;99.90;;;;;;5093267;28;20016;-51
2021/12/13 09:49:21;;;;;;;123.53;65.55;;;4.90;99.90;;;;;;5092895;28;20024;-50
2021/12/13 09:51:50;;;;;;;;;;;4.90;99.90;;;;;;5093612;28;20055;-52
2021/12/13 09:54:19;;;;;;;114.88;63.28;;;4.90;99.90;;;;;;5093659;28;19911;-50
2021/12/13 09:56:49;;;;;;;128.15;67.22;;;5.60;99.90;;;;;;5088400;28;20034;-50
2021/12/13 09:59:21;;;;;;;120.32;65.25;;;7.40;99.90;;;;;;5093981;28;20034;-51
2021/12/13 10:01:48;;;;;;;116.28;61.53;;;8.90;99.90;;;;;;5088849;28;20384;-51
2021/12/13 10:04:25;;;;;;;107.18;59.53;;;9.50;99.90;;;;;;5092157;28;20445;-51
2021/12/13 10:06:59;;;;;;;101.65;56.05;;;9.60;99.90;;;;;;5090645;28;20020;-51
2021/12/13 10:09:46;;;;;;;84.20;44.85;;;9.60;99.90;;;;;;5091657;28;20042;-51
2021/12/13 10:12:22;;;;;;;81.43;45.65;;;9.80;99.90;;;;;;5090032;28;20032;-50
2021/12/13 10:15:01;;;;;;;72.55;41.58;;;9.70;99.90;;;;;;5089860;28;20032;-51
2021/12/13 10:17:32;;;;;;;79.45;43.80;;;8.60;99.90;;;;;;5092869;28;20028;-51
2021/12/13 10:20:05;;;;;;;67.38;37.42;;;8.00;99.90;;;;;;5092239;28;20035;-50
2021/12/13 10:22:32;;;;;;;86.28;41.28;;;8.00;99.90;;;;;;5091284;28;20055;-50
2021/12/13 10:25:10;;;;;;;76.72;41.17;;;7.40;99.90;;;;;;5087545;28;20098;-50
2021/12/13 10:27:37;;;;;;;66.80;37.55;;;6.90;99.90;;;;;;5088662;28;20024;-50
2021/12/13 10:30:08;;;;;;;64.05;33.85;;;6.60;99.90;;;;;;5090881;28;20016;-51
2021/12/13 10:32:38;;;;;;;65.35;35.78;;;6.60;99.90;;;;;;5090246;28;20149;-51
2021/12/13 10:35:14;;;;;;;61.63;36.22;;;6.40;99.90;;;;;;5093153;28;20032;-50
2021/12/13 10:37:51;;;;;;;57.55;32.88;;;5.90;99.90;;;;;;5090430;28;20126;-51
2021/12/13 10:40:33;;;;;;;62.42;37.13;;;5.60;99.90;;;;;;5091139;28;20020;-51
2021/12/13 10:43:07;;;;;;;88.40;48.97;;;5.60;99.90;;;;;;5092181;28;20035;-52
2021/12/13 10:45:46;;;;;;;65.40;37.00;;;5.30;99.90;;;;;;5090486;28;20024;-52
2021/12/13 10:48:15;;;;;;;69.28;39.80;;;5.30;99.90;;;;;;5091911;28;20024;-52
2021/12/13 10:50:50;;;;;;;81.40;47.88;;;5.00;99.90;;;;;;5088606;28;20024;-52
2021/12/13 10:53:21;;;;;;;72.20;41.45;;;4.90;99.90;;;;;;5087916;28;20089;-52
2021/12/13 10:55:58;;;;;;;89.20;42.10;;;4.80;99.90;;;;;;5090871;28;20126;-52
2021/12/13 10:58:29;;;;;;;84.28;41.28;;;5.00;99.90;;;;;;5091620;28;20027;-50
2021/12/13 11:01:23;;;;;;;74.32;36.40;;;5.00;99.90;;;;;;5090586;28;20023;-52
2021/12/13 11:03:51;;;;;;;75.97;37.60;;;4.90;99.90;;;;;;5077561;28;20432;-52
2021/12/13 11:06:19;;;;;;;79.18;39.58;;;4.90;99.90;;;;;;5094427;28;20048;-52
2021/12/13 11:08:45;;;;;;;75.70;41.80;;;4.80;99.90;;;;;;5093864;28;20549;-52
2021/12/13 11:11:19;;;;;;;78.60;43.38;;;4.80;99.90;;;;;;5094414;28;20115;-52
2021/12/13 11:13:48;;;;;;;80.20;42.58;;;4.90;99.90;;;;;;5094414;28;20016;-52
2021/12/13 11:16:24;;;;;;;86.03;46.50;;;4.90;99.90;;;;;;5094575;28;20031;-52
2021/12/13 11:18:50;;;;;;;90.60;44.80;;;4.90;99.90;;;;;;5095706;28;20081;-52
2021/12/13 11:21:39;;;;;;;107.05;49.80;;;5.00;99.90;;;;;;5098949;28;20047;-52
2021/12/13 11:24:10;;;;;;;107.78;51.42;;;5.10;99.90;;;;;;5096172;28;20465;-52
2021/12/13 11:26:40;;;;;;;;;;;5.30;99.90;;;;;;5098263;28;20028;-52
2021/12/13 11:29:07;;;;;;;95.80;45.45;;;5.50;99.90;;;;;;5096911;28;20281;-52
2021/12/13 11:31:33;;;;;;;102.32;46.80;;;5.50;99.90;;;;;;5097430;28;20347;-50
2021/12/13 11:34:03;;;;;;;99.75;48.17;;;5.40;99.90;;;;;;5096871;28;20032;-50
2021/12/13 11:36:44;;;;;;;87.30;45.03;;;5.50;99.90;;;;;;5096875;28;20042;-50
2021/12/13 11:39:29;;;;;;;91.28;45.88;;;5.40;99.90;;;;;;5096935;28;20127;-50
2021/12/13 11:42:31;;;;;;;91.22;43.20;;;5.40;99.90;;;;;;5096357;28;20049;-50
2021/12/13 11:45:45;;;;;;;89.15;44.17;;;5.30;99.90;;;;;;5091387;28;20079;-50
2021/12/13 11:48:49;;;;;;;81.53;39.72;;;5.20;99.90;;;;;;5079466;28;20043;-50
2021/12/13 11:51:27;;;;;;;81.78;41.92;;;5.20;99.90;;;;;;5092003;28;20020;-50
2021/12/13 11:54:25;;;;;;;97.22;45.85;;;5.50;99.90;;;;;;5097891;28;20028;-50
2021/12/13 11:57:35;;;;;;;131.57;59.25;;;5.70;99.90;;;;;;5091826;28;20034;-50
2021/12/13 12:00:26;;;;;;;115.03;53.35;;;5.80;99.90;;;;;;5085808;28;20035;-50
2021/12/13 12:03:29;;;;;;;110.85;50.67;;;5.80;99.90;;;;;;5083953;28;20036;-50
2021/12/13 12:06:33;;;;;;;109.57;49.30;;;5.90;99.90;;;;;;5089894;28;20027;-50
2021/12/13 12:09:26;;;;;;;100.50;46.70;;;5.90;99.90;;;;;;5093417;28;20028;-50
2021/12/13 12:12:31;;;;;;;107.60;45.58;;;6.20;99.90;;;;;;5096591;28;20115;-51
2021/12/13 12:15:01;;;;;;;99.15;42.30;;;6.40;99.90;;;;;;5073316;28;20036;-51
2021/12/13 12:17:29;;;;;;;84.47;39.97;;;6.30;99.90;;;;;;5094206;28;20031;-51
2021/12/13 12:19:56;;;;;;;94.95;42.55;;;6.20;99.90;;;;;;5094059;28;20128;-51
2021/12/13 12:22:27;;;;;;;92.07;45.78;;;6.10;99.90;;;;;;5093761;28;20031;-51
2021/12/13 12:24:59;;;;;;;;;;;5.90;99.90;;;;;;5092115;28;20058;-51
2021/12/13 12:27:28;;;;;;;86.32;43.10;;;5.80;99.90;;;;;;5090611;28;19912;-51
2021/12/13 12:30:04;;;;;;;99.10;41.83;;;5.80;99.90;;;;;;5095517;28;20042;-51
2021/12/13 12:32:36;;;;;;;92.00;45.03;;;5.80;99.90;;;;;;5095805;28;20032;-51
2021/12/13 12:35:20;;;;;;;100.65;46.47;;;5.80;99.90;;;;;;5095841;28;20493;-51
2021/12/13 12:38:17;;;;;;;99.45;45.95;;;5.50;99.90;;;;;;5085067;28;20428;-50
2021/12/13 12:40:58;;;;;;;111.40;51.38;;;5.40;99.90;;;;;;5093913;28;20092;-51
2021/12/13 12:43:30;;;;;;;113.28;49.83;;;5.60;99.90;;;;;;5085185;28;20031;-51
2021/12/13 12:46:00;;;;;;;104.72;47.65;;;5.50;99.90;;;;;;5083453;28;20056;-50
2021/12/13 12:48:48;;;;;;;98.22;47.13;;;5.40;99.90;;;;;;5080893;28;20024;-51
2021/12/13 12:51:30;;;;;;;102.13;46.75;;;5.30;99.90;;;;;;5085522;28;20047;-51
2021/12/13 12:54:05;;;;;;;100.47;47.80;;;5.40;99.90;;;;;;5089958;28;20039;-50
2021/12/13 12:56:49;;;;;;;116.28;53.53;;;5.30;99.90;;;;;;5096548;28;20080;-50
2021/12/13 12:59:26;;;;;;;139.25;64.07;;;5.50;99.90;;;;;;5091130;28;20165;-51
2021/12/13 13:02:04;;;;;;;106.75;52.13;;;5.80;99.90;;;;;;5087812;28;20032;-51
2021/12/13 13:04:39;;;;;;;118.00;56.70;;;5.90;99.90;;;;;;5094642;28;20028;-51
2021/12/13 13:07:08;;;;;;;109.15;56.83;;;5.90;99.90;;;;;;5089400;28;20028;-52
2021/12/13 13:09:40;;;;;;;122.20;62.55;;;5.80;99.90;;;;;;5091422;28;20047;-52
2021/12/13 13:12:08;;;;;;;134.85;62.13;;;5.60;99.90;;;;;;5090373;28;20020;-52
2021/12/13 13:14:45;;;;;;;130.30;61.65;;;5.50;99.90;;;;;;5093449;28;20027;-52
2021/12/13 13:17:12;;;;;;;129.27;59.78;;;5.40;99.90;;;;;;5091198;28;20066;-51
2021/12/13 13:19:43;;;;;;;125.43;59.78;;;5.20;99.90;;;;;;5090344;28;20603;-52
2021/12/13 13:22:17;;;;;;;122.03;57.80;;;5.10;99.90;;;;;;5090386;28;20107;-51
2021/12/13 13:24:50;;;;;;;125.28;56.60;;;5.00;99.90;;;;;;5094575;28;20028;-52
2021/12/13 13:27:18;;;;;;;109.80;53.42;;;5.00;99.90;;;;;;5081473;28;20060;-51
2021/12/13 13:29:44;;;;;;;119.22;54.95;;;5.10;99.90;;;;;;5091406;28;20070;-51
2021/12/13 13:32:12;;;;;;;103.75;49.25;;;5.00;99.90;;;;;;5089288;28;20489;-51
2021/12/13 13:34:45;;;;;;;98.03;47.15;;;5.00;99.90;;;;;;5094351;28;20028;-51
2021/12/13 13:37:28;;;;;;;108.72;52.75;;;5.00;99.90;;;;;;5087841;28;20034;-51